SVA2 GVNP-GOBD
Flight info
| Callsign | SVA2 |
|---|---|
| Flight time | N/A |
| Altitude | 37000 |
| Route | MILPU1N SONVA DCT MOGSA DCT PIVSA PIVSA1D |
| Aircraft | A321/M-SDE3FGHIRWY/LB1 |
Departure
| Time | 2026-04-25 18:20 |
|---|---|
| Airport | Nelson Mandela International Airport (GVNP) |
Arrival
| Time | N/A |
|---|---|
| Airport | Blaise Diagne International Airport (GOBD) |
| Time | Latitude | Longitude | Altitude | Speed | Heading |
|---|---|---|---|---|---|
| 2026-04-25 18:06 | 14.94565 | -23.48523 | 324 ft | 0 kts | 293° |
| 2026-04-25 18:06 | 14.94611 | -23.48507 | 326 ft | 0 kts | 293° |
| 2026-04-25 18:10 | 14.94606 | -23.48496 | 325 ft | 0 kts | 292° |
| 2026-04-25 18:11 | 14.94602 | -23.48485 | 324 ft | 2 kts | 278° |
| 2026-04-25 18:11 | 14.94602 | -23.48469 | 324 ft | 2 kts | 259° |
| 2026-04-25 18:11 | 14.94607 | -23.48454 | 323 ft | 2 kts | 240° |
| 2026-04-25 18:11 | 14.94616 | -23.48442 | 323 ft | 2 kts | 222° |
| 2026-04-25 18:12 | 14.94627 | -23.48434 | 323 ft | 0 kts | 206° |
| 2026-04-25 18:12 | 14.94633 | -23.48431 | 323 ft | 1 kts | 202° |
| 2026-04-25 18:12 | 14.94634 | -23.48430 | 323 ft | 0 kts | 203° |
| 2026-04-25 18:14 | 14.94501 | -23.48488 | 321 ft | 29 kts | 202° |
| 2026-04-25 18:14 | 14.94370 | -23.48511 | 316 ft | 6 kts | 128° |
| 2026-04-25 18:14 | 14.94355 | -23.48482 | 315 ft | 1 kts | 112° |
| 2026-04-25 18:14 | 14.94354 | -23.48481 | 315 ft | 0 kts | 112° |
| 2026-04-25 18:15 | 14.94354 | -23.48480 | 315 ft | 0 kts | 112° |
| 2026-04-25 18:16 | 14.94243 | -23.48426 | 311 ft | 42 kts | 211° |
| 2026-04-25 18:17 | 14.93977 | -23.48529 | 311 ft | 39 kts | 203° |
| 2026-04-25 18:17 | 14.93692 | -23.48645 | 306 ft | 44 kts | 201° |
| 2026-04-25 18:17 | 14.93519 | -23.48718 | 303 ft | 20 kts | 203° |
| 2026-04-25 18:17 | 14.93403 | -23.48769 | 297 ft | 13 kts | 208° |
| 2026-04-25 18:18 | 14.93341 | -23.48796 | 294 ft | 2 kts | 142° |
| 2026-04-25 18:18 | 14.93350 | -23.48786 | 295 ft | 2 kts | 13° |
| 2026-04-25 18:18 | 14.93355 | -23.48784 | 295 ft | 0 kts | 20° |
| 2026-04-25 18:18 | 14.93351 | -23.48785 | 295 ft | 1 kts | 20° |
| 2026-04-25 18:19 | 14.93341 | -23.48789 | 294 ft | 0 kts | 20° |
| 2026-04-25 18:19 | 14.93349 | -23.48786 | 295 ft | 14 kts | 21° |
| 2026-04-25 18:19 | 14.93708 | -23.48639 | 307 ft | 94 kts | 22° |
| 2026-04-25 18:19 | 14.94544 | -23.48293 | 337 ft | 156 kts | 24° |
| 2026-04-25 18:20 | 14.95576 | -23.47870 | 914 ft | 162 kts | 23° |
| 2026-04-25 18:20 | 14.96618 | -23.47443 | 1620 ft | 160 kts | 22° |
| 2026-04-25 18:20 | 14.97635 | -23.47020 | 2262 ft | 162 kts | 22° |
| 2026-04-25 18:20 | 14.98735 | -23.46552 | 2655 ft | 180 kts | 22° |
| 2026-04-25 18:21 | 14.99964 | -23.46024 | 2964 ft | 204 kts | 22° |
| 2026-04-25 18:21 | 15.01345 | -23.45433 | 3376 ft | 224 kts | 22° |
| 2026-04-25 18:21 | 15.02814 | -23.44819 | 4107 ft | 229 kts | 21° |
| 2026-04-25 18:21 | 15.04223 | -23.44193 | 5056 ft | 222 kts | 31° |
| 2026-04-25 18:22 | 15.05223 | -23.43056 | 5358 ft | 221 kts | 69° |
| 2026-04-25 18:22 | 15.05374 | -23.42545 | 5444 ft | 222 kts | 80° |
| 2026-04-25 18:22 | 15.04923 | -23.39932 | 5868 ft | 227 kts | 108° |
| 2026-04-25 18:22 | 15.04422 | -23.38397 | 6110 ft | 228 kts | 108° |
| 2026-04-25 18:23 | 15.03938 | -23.36861 | 6355 ft | 227 kts | 107° |
| 2026-04-25 18:23 | 15.03475 | -23.35339 | 6643 ft | 221 kts | 107° |
| 2026-04-25 18:23 | 15.03023 | -23.33814 | 7127 ft | 222 kts | 107° |
| 2026-04-25 18:23 | 15.02579 | -23.32298 | 7598 ft | 223 kts | 107° |
| 2026-04-25 18:24 | 15.02133 | -23.30763 | 8076 ft | 226 kts | 107° |
| 2026-04-25 18:24 | 15.01681 | -23.29205 | 8563 ft | 228 kts | 107° |
| 2026-04-25 18:24 | 15.01223 | -23.27623 | 9041 ft | 231 kts | 108° |
| 2026-04-25 18:24 | 15.00760 | -23.26033 | 9528 ft | 233 kts | 107° |
| 2026-04-25 18:25 | 15.00453 | -23.24975 | 9822 ft | 229 kts | 107° |
| 2026-04-25 18:25 | 14.99854 | -23.22916 | 10464 ft | 226 kts | 107° |
| 2026-04-25 18:25 | 14.99399 | -23.21355 | 10960 ft | 228 kts | 107° |
| 2026-04-25 18:25 | 14.98941 | -23.19779 | 11444 ft | 229 kts | 107° |
| 2026-04-25 18:26 | 14.98483 | -23.18203 | 11935 ft | 231 kts | 107° |
| 2026-04-25 18:26 | 14.98022 | -23.16619 | 12417 ft | 233 kts | 107° |
| 2026-04-25 18:26 | 14.97551 | -23.15001 | 12900 ft | 235 kts | 106° |
| 2026-04-25 18:26 | 14.97085 | -23.13402 | 13377 ft | 236 kts | 106° |
| 2026-04-25 18:27 | 14.96611 | -23.11770 | 13847 ft | 238 kts | 106° |
| 2026-04-25 18:27 | 14.96137 | -23.10133 | 14312 ft | 238 kts | 106° |
| 2026-04-25 18:27 | 14.95663 | -23.08497 | 14769 ft | 238 kts | 106° |
| 2026-04-25 18:27 | 14.95187 | -23.06857 | 15185 ft | 240 kts | 107° |
| 2026-04-25 18:28 | 14.94709 | -23.05214 | 15578 ft | 242 kts | 107° |
| 2026-04-25 18:28 | 14.94219 | -23.03531 | 15954 ft | 245 kts | 107° |
| 2026-04-25 18:28 | 14.93735 | -23.01871 | 16330 ft | 246 kts | 107° |
| 2026-04-25 18:29 | 14.92731 | -22.98429 | 16929 ft | 259 kts | 108° |
| 2026-04-25 18:29 | 14.92200 | -22.96616 | 16936 ft | 268 kts | 108° |
| 2026-04-25 18:30 | 14.90644 | -22.91280 | 16927 ft | 256 kts | 108° |
| 2026-04-25 18:30 | 14.90134 | -22.89537 | 16928 ft | 256 kts | 108° |
| 2026-04-25 18:30 | 14.89622 | -22.87786 | 16929 ft | 256 kts | 108° |
| 2026-04-25 18:30 | 14.89106 | -22.86021 | 16928 ft | 258 kts | 107° |
| 2026-04-25 18:31 | 14.88579 | -22.84220 | 16935 ft | 260 kts | 107° |
| 2026-04-25 18:31 | 14.88063 | -22.82452 | 16927 ft | 260 kts | 107° |
| 2026-04-25 18:31 | 14.87537 | -22.80651 | 16925 ft | 260 kts | 108° |
| 2026-04-25 18:31 | 14.87065 | -22.78836 | 16919 ft | 261 kts | 101° |
| 2026-04-25 18:32 | 14.86816 | -22.76984 | 16917 ft | 261 kts | 94° |
| 2026-04-25 18:32 | 14.86720 | -22.75122 | 16911 ft | 262 kts | 92° |
| 2026-04-25 18:32 | 14.86652 | -22.73248 | 16912 ft | 262 kts | 92° |
| 2026-04-25 18:32 | 14.86584 | -22.71371 | 16909 ft | 261 kts | 92° |
| 2026-04-25 18:33 | 14.86511 | -22.69495 | 16909 ft | 261 kts | 92° |
| 2026-04-25 18:33 | 14.86433 | -22.67599 | 16910 ft | 262 kts | 92° |
| 2026-04-25 18:33 | 14.86353 | -22.65731 | 16910 ft | 261 kts | 92° |
| 2026-04-25 18:33 | 14.86272 | -22.63854 | 16908 ft | 261 kts | 92° |
| 2026-04-25 18:34 | 14.86191 | -22.62016 | 16910 ft | 261 kts | 92° |
| 2026-04-25 18:34 | 14.86106 | -22.60109 | 16905 ft | 261 kts | 92° |
| 2026-04-25 18:34 | 14.86023 | -22.58249 | 16908 ft | 261 kts | 92° |
| 2026-04-25 18:34 | 14.85940 | -22.56383 | 16909 ft | 261 kts | 92° |
| 2026-04-25 18:35 | 14.85857 | -22.54511 | 16911 ft | 260 kts | 92° |
| 2026-04-25 18:35 | 14.85773 | -22.52626 | 16913 ft | 261 kts | 92° |
| 2026-04-25 18:35 | 14.85689 | -22.50763 | 16908 ft | 261 kts | 92° |
| 2026-04-25 18:35 | 14.85607 | -22.48902 | 16910 ft | 261 kts | 92° |
| 2026-04-25 18:36 | 14.85524 | -22.47038 | 16911 ft | 261 kts | 92° |
| 2026-04-25 18:36 | 14.85440 | -22.45176 | 16904 ft | 260 kts | 92° |
| 2026-04-25 18:36 | 14.85355 | -22.43313 | 16907 ft | 259 kts | 92° |
| 2026-04-25 18:36 | 14.85271 | -22.41467 | 16903 ft | 258 kts | 92° |
| 2026-04-25 18:37 | 14.85187 | -22.39608 | 16908 ft | 257 kts | 92° |
| 2026-04-25 18:37 | 14.85103 | -22.37769 | 16907 ft | 257 kts | 92° |
| 2026-04-25 18:37 | 14.85018 | -22.35908 | 16909 ft | 258 kts | 92° |
| 2026-04-25 18:37 | 14.84934 | -22.34081 | 16910 ft | 258 kts | 92° |
| 2026-04-25 18:38 | 14.84849 | -22.32216 | 16909 ft | 258 kts | 92° |
| 2026-04-25 18:38 | 14.84765 | -22.30363 | 16908 ft | 258 kts | 92° |
| 2026-04-25 18:38 | 14.84682 | -22.28540 | 16907 ft | 257 kts | 92° |
| 2026-04-25 18:38 | 14.84597 | -22.26689 | 16908 ft | 257 kts | 92° |
| 2026-04-25 18:39 | 14.84514 | -22.24857 | 16910 ft | 256 kts | 92° |
| 2026-04-25 18:39 | 14.84429 | -22.23008 | 16908 ft | 256 kts | 93° |
| 2026-04-25 18:39 | 14.84344 | -22.21186 | 16909 ft | 256 kts | 92° |
| 2026-04-25 18:39 | 14.84259 | -22.19340 | 16907 ft | 257 kts | 93° |
| 2026-04-25 18:40 | 14.84174 | -22.17493 | 16911 ft | 257 kts | 93° |
| 2026-04-25 18:40 | 14.84088 | -22.15650 | 16913 ft | 257 kts | 93° |
| 2026-04-25 18:40 | 14.84002 | -22.13808 | 16911 ft | 257 kts | 92° |
| 2026-04-25 18:40 | 14.83916 | -22.11980 | 16911 ft | 257 kts | 92° |
| 2026-04-25 18:41 | 14.83830 | -22.10133 | 16911 ft | 257 kts | 92° |
| 2026-04-25 18:41 | 14.83743 | -22.08277 | 16913 ft | 258 kts | 92° |
| 2026-04-25 18:41 | 14.83641 | -22.06434 | 16911 ft | 258 kts | 94° |
| 2026-04-25 18:41 | 14.83501 | -22.04575 | 16909 ft | 258 kts | 94° |
| 2026-04-25 18:42 | 14.83354 | -22.02733 | 16910 ft | 258 kts | 95° |
| 2026-04-25 18:42 | 14.83305 | -22.02112 | 16910 ft | 258 kts | 95° |
| 2026-04-25 18:42 | 14.83065 | -21.99050 | 16907 ft | 257 kts | 95° |
| 2026-04-25 18:42 | 14.82924 | -21.97224 | 16908 ft | 257 kts | 95° |
| 2026-04-25 18:43 | 14.82781 | -21.95364 | 16910 ft | 257 kts | 95° |
| 2026-04-25 18:43 | 14.82641 | -21.93541 | 16913 ft | 257 kts | 95° |
| 2026-04-25 18:43 | 14.82501 | -21.91716 | 16910 ft | 256 kts | 95° |
| 2026-04-25 18:43 | 14.82360 | -21.89876 | 16911 ft | 257 kts | 95° |
| 2026-04-25 18:44 | 14.82217 | -21.88020 | 16916 ft | 257 kts | 95° |
| 2026-04-25 18:44 | 14.82076 | -21.86191 | 16910 ft | 257 kts | 95° |
| 2026-04-25 18:44 | 14.81934 | -21.84340 | 16910 ft | 257 kts | 94° |
| 2026-04-25 18:44 | 14.81792 | -21.82495 | 16911 ft | 258 kts | 94° |
| 2026-04-25 18:45 | 14.81652 | -21.80675 | 16910 ft | 258 kts | 94° |
| 2026-04-25 18:45 | 14.81509 | -21.78802 | 16912 ft | 258 kts | 94° |
| 2026-04-25 18:45 | 14.81366 | -21.76953 | 16913 ft | 258 kts | 94° |
| 2026-04-25 18:45 | 14.81225 | -21.75115 | 16916 ft | 258 kts | 94° |
| 2026-04-25 18:46 | 14.81083 | -21.73269 | 16918 ft | 258 kts | 94° |
| 2026-04-25 18:46 | 14.80940 | -21.71419 | 16923 ft | 259 kts | 95° |
| 2026-04-25 18:46 | 14.80799 | -21.69586 | 16920 ft | 259 kts | 95° |
| 2026-04-25 18:46 | 14.80655 | -21.67733 | 16923 ft | 258 kts | 95° |
| 2026-04-25 18:47 | 14.80511 | -21.65882 | 16920 ft | 258 kts | 95° |
| 2026-04-25 18:47 | 14.80368 | -21.64049 | 16921 ft | 257 kts | 94° |
| 2026-04-25 18:47 | 14.80226 | -21.62213 | 16921 ft | 258 kts | 94° |
| 2026-04-25 18:47 | 14.80082 | -21.60377 | 16921 ft | 257 kts | 94° |
| 2026-04-25 18:48 | 14.79938 | -21.58523 | 16924 ft | 257 kts | 94° |
| 2026-04-25 18:48 | 14.79794 | -21.56678 | 16921 ft | 257 kts | 94° |
| 2026-04-25 18:48 | 14.79651 | -21.54845 | 16919 ft | 257 kts | 94° |
| 2026-04-25 18:48 | 14.79500 | -21.52945 | 17034 ft | 275 kts | 94° |
| 2026-04-25 18:49 | 14.79341 | -21.50901 | 17216 ft | 297 kts | 94° |
| 2026-04-25 18:49 | 14.79171 | -21.48704 | 17416 ft | 319 kts | 94° |
| 2026-04-25 18:49 | 14.78985 | -21.46326 | 17550 ft | 344 kts | 95° |
| 2026-04-25 18:49 | 14.78786 | -21.43793 | 17677 ft | 368 kts | 95° |
| 2026-04-25 18:50 | 14.78572 | -21.41083 | 17803 ft | 392 kts | 95° |
| 2026-04-25 18:50 | 14.78342 | -21.38171 | 17929 ft | 414 kts | 94° |
| 2026-04-25 18:50 | 14.78092 | -21.35090 | 16957 ft | 462 kts | 95° |
| 2026-04-25 18:50 | 14.77819 | -21.31783 | 16996 ft | 460 kts | 95° |
| 2026-04-25 18:51 | 14.77563 | -21.28518 | 16940 ft | 443 kts | 95° |
| 2026-04-25 18:51 | 14.77398 | -21.26389 | 16930 ft | 450 kts | 95° |
| 2026-04-25 18:51 | 14.77058 | -21.22032 | 16912 ft | 466 kts | 95° |
| 2026-04-25 18:51 | 14.76797 | -21.18721 | 16904 ft | 468 kts | 95° |
| 2026-04-25 18:52 | 14.76530 | -21.15350 | 16899 ft | 468 kts | 95° |
| 2026-04-25 18:52 | 14.76264 | -21.12019 | 16901 ft | 470 kts | 95° |
| 2026-04-25 18:52 | 14.75996 | -21.08659 | 16900 ft | 470 kts | 95° |
| 2026-04-25 18:52 | 14.75727 | -21.05288 | 16898 ft | 471 kts | 95° |
| 2026-04-25 18:53 | 14.75456 | -21.01917 | 16893 ft | 471 kts | 95° |
| 2026-04-25 18:53 | 14.75189 | -20.98597 | 16892 ft | 471 kts | 95° |
| 2026-04-25 18:53 | 14.74917 | -20.95220 | 16890 ft | 470 kts | 95° |
| 2026-04-25 18:53 | 14.74647 | -20.91871 | 16889 ft | 470 kts | 95° |
| 2026-04-25 18:54 | 14.74102 | -20.85137 | 16890 ft | 470 kts | 95° |
| 2026-04-25 18:54 | 14.73830 | -20.81793 | 16888 ft | 471 kts | 95° |
| 2026-04-25 18:54 | 14.73557 | -20.78429 | 16888 ft | 471 kts | 95° |
| 2026-04-25 18:55 | 14.73282 | -20.75052 | 16889 ft | 471 kts | 95° |
| 2026-04-25 18:55 | 14.73009 | -20.71703 | 16890 ft | 471 kts | 95° |
| 2026-04-25 18:55 | 14.72736 | -20.68369 | 16891 ft | 471 kts | 95° |
| 2026-04-25 18:55 | 14.72460 | -20.64994 | 16889 ft | 471 kts | 95° |
| 2026-04-25 18:56 | 14.72184 | -20.61632 | 16894 ft | 471 kts | 95° |
| 2026-04-25 18:56 | 14.71977 | -20.59116 | 16891 ft | 471 kts | 95° |
| 2026-04-25 18:56 | 14.71703 | -20.55789 | 16888 ft | 471 kts | 95° |
| 2026-04-25 18:56 | 14.71431 | -20.52482 | 16892 ft | 471 kts | 95° |
| 2026-04-25 18:57 | 14.71149 | -20.49064 | 16896 ft | 471 kts | 95° |
| 2026-04-25 18:57 | 14.70870 | -20.45685 | 16894 ft | 471 kts | 95° |
| 2026-04-25 18:57 | 14.70593 | -20.42340 | 16897 ft | 471 kts | 95° |
| 2026-04-25 18:57 | 14.70501 | -20.41232 | 16897 ft | 471 kts | 95° |
| 2026-04-25 18:58 | 14.70036 | -20.35633 | 16894 ft | 470 kts | 95° |
| 2026-04-25 18:58 | 14.69478 | -20.28941 | 16894 ft | 471 kts | 95° |
| 2026-04-25 18:58 | 14.69179 | -20.25537 | 16893 ft | 471 kts | 96° |
| 2026-04-25 18:59 | 14.68027 | -20.18924 | 16891 ft | 471 kts | 104° |
| 2026-04-25 18:59 | 14.66099 | -20.12495 | 16892 ft | 471 kts | 109° |
| 2026-04-25 19:00 | 14.64032 | -20.06136 | 16891 ft | 470 kts | 109° |
| 2026-04-25 19:00 | 14.62989 | -20.02918 | 16893 ft | 471 kts | 109° |
| 2026-04-25 19:01 | 14.60945 | -19.96577 | 16888 ft | 470 kts | 109° |
| 2026-04-25 19:01 | 14.59911 | -19.93366 | 16891 ft | 471 kts | 109° |
| 2026-04-25 19:01 | 14.58880 | -19.90159 | 16891 ft | 471 kts | 109° |
| 2026-04-25 19:01 | 14.57851 | -19.86958 | 16890 ft | 470 kts | 109° |
| 2026-04-25 19:02 | 14.55795 | -19.80567 | 16886 ft | 470 kts | 108° |
| 2026-04-25 19:02 | 14.54767 | -19.77372 | 16883 ft | 471 kts | 109° |
| 2026-04-25 19:02 | 14.53739 | -19.74177 | 16883 ft | 471 kts | 109° |
| 2026-04-25 19:03 | 14.52370 | -19.69932 | 16884 ft | 471 kts | 108° |
| 2026-04-25 19:03 | 14.50654 | -19.64610 | 16883 ft | 470 kts | 108° |
| 2026-04-25 19:03 | 14.49613 | -19.61381 | 16883 ft | 470 kts | 108° |
| 2026-04-25 19:04 | 14.47554 | -19.55006 | 16880 ft | 470 kts | 108° |
| 2026-04-25 19:04 | 14.46517 | -19.51797 | 16879 ft | 470 kts | 108° |
| 2026-04-25 19:05 | 14.44452 | -19.45409 | 16880 ft | 471 kts | 108° |
| 2026-04-25 19:05 | 14.42391 | -19.39043 | 16879 ft | 471 kts | 108° |
| 2026-04-25 19:05 | 14.41346 | -19.35817 | 16879 ft | 471 kts | 109° |
| 2026-04-25 19:06 | 14.40339 | -19.32710 | 16878 ft | 471 kts | 109° |
| 2026-04-25 19:06 | 14.38309 | -19.26451 | 16876 ft | 470 kts | 109° |
| 2026-04-25 19:06 | 14.37270 | -19.23254 | 16874 ft | 470 kts | 109° |
| 2026-04-25 19:07 | 14.35197 | -19.16871 | 16875 ft | 470 kts | 109° |
| 2026-04-25 19:07 | 14.34163 | -19.13693 | 16877 ft | 470 kts | 109° |
| 2026-04-25 19:08 | 14.32094 | -19.07334 | 16873 ft | 470 kts | 109° |
| 2026-04-25 19:08 | 14.31044 | -19.04109 | 16873 ft | 470 kts | 109° |
| 2026-04-25 19:09 | 14.27944 | -18.94593 | 16870 ft | 469 kts | 109° |
| 2026-04-25 19:09 | 14.27215 | -18.92458 | 16865 ft | 469 kts | 111° |
| 2026-04-25 19:09 | 14.22849 | -18.86190 | 16863 ft | 465 kts | 140° |
| 2026-04-25 19:10 | 14.20219 | -18.84298 | 16872 ft | 463 kts | 150° |
| 2026-04-25 19:10 | 14.17379 | -18.82648 | 16873 ft | 463 kts | 153° |
| 2026-04-25 19:10 | 14.14568 | -18.81085 | 16872 ft | 463 kts | 153° |
| 2026-04-25 19:10 | 14.11729 | -18.79521 | 16873 ft | 463 kts | 153° |
| 2026-04-25 19:11 | 14.08857 | -18.77948 | 16875 ft | 462 kts | 153° |
| 2026-04-25 19:11 | 14.06001 | -18.76382 | 16873 ft | 463 kts | 153° |
| 2026-04-25 19:11 | 14.03194 | -18.74841 | 16870 ft | 463 kts | 153° |
| 2026-04-25 19:11 | 14.00321 | -18.73263 | 16871 ft | 463 kts | 153° |
| 2026-04-25 19:12 | 13.97479 | -18.71706 | 16870 ft | 463 kts | 153° |
| 2026-04-25 19:12 | 13.94685 | -18.70179 | 16863 ft | 446 kts | 153° |
| 2026-04-25 19:12 | 13.92032 | -18.68724 | 16862 ft | 425 kts | 153° |
| 2026-04-25 19:12 | 13.89452 | -18.67303 | 16858 ft | 406 kts | 152° |
| 2026-04-25 19:13 | 13.87231 | -18.65621 | 16844 ft | 390 kts | 135° |
| 2026-04-25 19:13 | 13.85714 | -18.63426 | 16853 ft | 373 kts | 118° |
| 2026-04-25 19:13 | 13.84633 | -18.61063 | 16855 ft | 357 kts | 114° |
| 2026-04-25 19:13 | 13.83667 | -18.58770 | 16856 ft | 342 kts | 113° |
| 2026-04-25 19:14 | 13.82829 | -18.56498 | 16852 ft | 342 kts | 102° |
| 2026-04-25 19:14 | 13.82707 | -18.55700 | 16840 ft | 341 kts | 92° |
| 2026-04-25 19:14 | 13.83469 | -18.51751 | 16867 ft | 340 kts | 70° |
| 2026-04-25 19:14 | 13.84210 | -18.49465 | 16868 ft | 340 kts | 70° |
| 2026-04-25 19:15 | 13.84925 | -18.47149 | 16868 ft | 340 kts | 72° |
| 2026-04-25 19:15 | 13.85587 | -18.44836 | 16867 ft | 341 kts | 73° |
| 2026-04-25 19:15 | 13.86231 | -18.42460 | 16873 ft | 357 kts | 73° |
| 2026-04-25 19:15 | 13.86896 | -18.39910 | 16874 ft | 375 kts | 74° |
| 2026-04-25 19:16 | 13.87553 | -18.37331 | 16868 ft | 378 kts | 75° |
| 2026-04-25 19:16 | 13.88207 | -18.34729 | 16863 ft | 379 kts | 75° |
| 2026-04-25 19:16 | 13.88860 | -18.32116 | 16861 ft | 380 kts | 75° |
| 2026-04-25 19:16 | 13.89512 | -18.29507 | 16861 ft | 379 kts | 75° |
| 2026-04-25 19:17 | 13.90162 | -18.26895 | 16710 ft | 374 kts | 75° |
| 2026-04-25 19:17 | 13.90807 | -18.24315 | 16274 ft | 373 kts | 75° |
| 2026-04-25 19:17 | 13.91442 | -18.21775 | 15809 ft | 371 kts | 75° |
| 2026-04-25 19:17 | 13.92081 | -18.19211 | 15377 ft | 368 kts | 75° |
| 2026-04-25 19:18 | 13.92717 | -18.16662 | 14941 ft | 365 kts | 76° |
| 2026-04-25 19:18 | 13.93343 | -18.14148 | 14524 ft | 362 kts | 76° |
| 2026-04-25 19:18 | 13.93961 | -18.11664 | 14103 ft | 358 kts | 76° |
| 2026-04-25 19:18 | 13.94570 | -18.09218 | 13671 ft | 356 kts | 76° |
| 2026-04-25 19:19 | 13.95181 | -18.06761 | 13230 ft | 353 kts | 76° |
| 2026-04-25 19:19 | 13.95783 | -18.04333 | 12795 ft | 350 kts | 76° |
| 2026-04-25 19:19 | 13.96411 | -18.01923 | 12359 ft | 348 kts | 72° |
| 2026-04-25 19:19 | 13.96996 | -18.00372 | 12067 ft | 346 kts | 66° |
| 2026-04-25 19:20 | 13.98595 | -17.97574 | 11488 ft | 343 kts | 55° |
| 2026-04-25 19:20 | 14.00025 | -17.95600 | 11045 ft | 341 kts | 53° |
| 2026-04-25 19:20 | 14.01472 | -17.93661 | 10853 ft | 339 kts | 53° |
| 2026-04-25 19:20 | 14.02895 | -17.91751 | 10848 ft | 340 kts | 53° |
| 2026-04-25 19:21 | 14.04346 | -17.89792 | 10845 ft | 340 kts | 53° |
| 2026-04-25 19:21 | 14.07190 | -17.85927 | 10842 ft | 340 kts | 53° |
| 2026-04-25 19:21 | 14.08622 | -17.83972 | 10841 ft | 340 kts | 53° |
| 2026-04-25 19:22 | 14.10039 | -17.82035 | 10842 ft | 340 kts | 53° |
| 2026-04-25 19:22 | 14.11477 | -17.80068 | 10841 ft | 340 kts | 53° |
| 2026-04-25 19:22 | 14.13831 | -17.75900 | 10842 ft | 340 kts | 69° |
| 2026-04-25 19:23 | 14.14626 | -17.73640 | 10703 ft | 334 kts | 71° |
| 2026-04-25 19:23 | 14.16208 | -17.69119 | 9732 ft | 334 kts | 70° |
| 2026-04-25 19:23 | 14.17019 | -17.66896 | 9298 ft | 331 kts | 69° |
| 2026-04-25 19:24 | 14.17829 | -17.64714 | 8955 ft | 326 kts | 69° |
| 2026-04-25 19:24 | 14.18654 | -17.62521 | 8706 ft | 327 kts | 69° |
| 2026-04-25 19:24 | 14.20300 | -17.58173 | 8079 ft | 324 kts | 68° |
| 2026-04-25 19:25 | 14.21932 | -17.53889 | 7454 ft | 320 kts | 68° |
| 2026-04-25 19:25 | 14.22739 | -17.51769 | 7142 ft | 319 kts | 68° |
| 2026-04-25 19:25 | 14.23544 | -17.49657 | 6828 ft | 317 kts | 68° |
| 2026-04-25 19:26 | 14.24347 | -17.47546 | 6513 ft | 315 kts | 67° |
| 2026-04-25 19:26 | 14.25140 | -17.45464 | 6200 ft | 312 kts | 67° |
| 2026-04-25 19:26 | 14.25921 | -17.43407 | 5883 ft | 306 kts | 67° |
| 2026-04-25 19:26 | 14.26687 | -17.41394 | 5567 ft | 299 kts | 67° |
| 2026-04-25 19:27 | 14.27436 | -17.39426 | 5252 ft | 294 kts | 67° |
| 2026-04-25 19:27 | 14.27931 | -17.38123 | 5069 ft | 289 kts | 67° |
| 2026-04-25 19:27 | 14.28899 | -17.35578 | 4970 ft | 290 kts | 67° |
| 2026-04-25 19:27 | 14.29638 | -17.33640 | 4724 ft | 292 kts | 67° |
| 2026-04-25 19:28 | 14.30388 | -17.31668 | 4452 ft | 292 kts | 67° |
| 2026-04-25 19:28 | 14.31108 | -17.29773 | 4173 ft | 284 kts | 67° |
| 2026-04-25 19:28 | 14.31822 | -17.27883 | 3915 ft | 277 kts | 67° |
| 2026-04-25 19:28 | 14.32512 | -17.26065 | 3745 ft | 267 kts | 67° |
| 2026-04-25 19:29 | 14.33177 | -17.24296 | 3620 ft | 262 kts | 67° |
| 2026-04-25 19:29 | 14.33806 | -17.22573 | 3496 ft | 258 kts | 68° |
| 2026-04-25 19:29 | 14.34424 | -17.20835 | 3372 ft | 257 kts | 68° |
| 2026-04-25 19:29 | 14.35039 | -17.19111 | 3248 ft | 255 kts | 67° |
| 2026-04-25 19:30 | 14.35651 | -17.17410 | 3122 ft | 252 kts | 67° |
| 2026-04-25 19:30 | 14.36249 | -17.15712 | 3009 ft | 248 kts | 68° |
| 2026-04-25 19:30 | 14.36814 | -17.14056 | 2999 ft | 240 kts | 69° |
| 2026-04-25 19:30 | 14.37334 | -17.12450 | 3000 ft | 238 kts | 69° |
| 2026-04-25 19:31 | 14.37854 | -17.10852 | 2987 ft | 229 kts | 69° |
| 2026-04-25 19:31 | 14.38358 | -17.09283 | 2994 ft | 228 kts | 67° |
| 2026-04-25 19:31 | 14.39114 | -17.07900 | 2974 ft | 223 kts | 44° |
| 2026-04-25 19:31 | 14.40264 | -17.06803 | 3001 ft | 223 kts | 40° |
| 2026-04-25 19:32 | 14.41636 | -17.06142 | 3062 ft | 223 kts | 4° |
| 2026-04-25 19:32 | 14.43174 | -17.06104 | 2851 ft | 222 kts | 358° |
| 2026-04-25 19:32 | 14.44708 | -17.06272 | 2551 ft | 221 kts | 350° |
| 2026-04-25 19:32 | 14.45703 | -17.06535 | 2385 ft | 218 kts | 347° |
| 2026-04-25 19:33 | 14.47633 | -17.06912 | 2205 ft | 201 kts | 9° |